sensor_id;sensor_type;location;lat;lon;timestamp;P1;durP1;ratioP1;P2;durP2;ratioP2
49392;SDS011;35268;42.642;23.308;2023-07-20T00:00:51;6.43;;;2.80;;
49392;SDS011;35268;42.642;23.308;2023-07-20T00:03:18;10.93;;;3.03;;
49392;SDS011;35268;42.642;23.308;2023-07-20T00:05:50;8.07;;;2.33;;
49392;SDS011;35268;42.642;23.308;2023-07-20T00:08:16;16.50;;;2.60;;
49392;SDS011;35268;42.642;23.308;2023-07-20T00:10:43;12.32;;;3.13;;
49392;SDS011;35268;42.642;23.308;2023-07-20T00:13:09;14.70;;;2.90;;
49392;SDS011;35268;42.642;23.308;2023-07-20T00:15:36;9.27;;;2.65;;
49392;SDS011;35268;42.642;23.308;2023-07-20T00:18:02;10.32;;;2.83;;
49392;SDS011;35268;42.642;23.308;2023-07-20T00:20:28;8.95;;;2.75;;
49392;SDS011;35268;42.642;23.308;2023-07-20T00:22:54;12.40;;;2.90;;
49392;SDS011;35268;42.642;23.308;2023-07-20T00:25:20;8.57;;;2.90;;
49392;SDS011;35268;42.642;23.308;2023-07-20T00:27:45;8.18;;;3.33;;
49392;SDS011;35268;42.642;23.308;2023-07-20T00:30:11;9.10;;;2.78;;
49392;SDS011;35268;42.642;23.308;2023-07-20T00:32:37;7.10;;;2.88;;
49392;SDS011;35268;42.642;23.308;2023-07-20T00:35:02;7.72;;;3.00;;
49392;SDS011;35268;42.642;23.308;2023-07-20T00:37:28;9.70;;;2.60;;
49392;SDS011;35268;42.642;23.308;2023-07-20T00:39:54;10.57;;;2.63;;
49392;SDS011;35268;42.642;23.308;2023-07-20T00:42:19;9.35;;;2.97;;
49392;SDS011;35268;42.642;23.308;2023-07-20T00:44:45;8.73;;;2.45;;
49392;SDS011;35268;42.642;23.308;2023-07-20T00:47:10;6.50;;;3.00;;
49392;SDS011;35268;42.642;23.308;2023-07-20T00:49:37;8.40;;;2.20;;
49392;SDS011;35268;42.642;23.308;2023-07-20T00:52:03;8.23;;;3.03;;
49392;SDS011;35268;42.642;23.308;2023-07-20T00:54:31;13.50;;;2.60;;
49392;SDS011;35268;42.642;23.308;2023-07-20T00:56:57;9.95;;;2.47;;
49392;SDS011;35268;42.642;23.308;2023-07-20T00:59:25;10.05;;;2.78;;
49392;SDS011;35268;42.642;23.308;2023-07-20T01:01:51;6.80;;;2.45;;
49392;SDS011;35268;42.642;23.308;2023-07-20T01:04:16;9.73;;;2.22;;
49392;SDS011;35268;42.642;23.308;2023-07-20T01:06:45;12.52;;;2.55;;
49392;SDS011;35268;42.642;23.308;2023-07-20T01:09:42;8.85;;;2.70;;
49392;SDS011;35268;42.642;23.308;2023-07-20T01:12:25;10.93;;;3.10;;
49392;SDS011;35268;42.642;23.308;2023-07-20T01:14:55;8.20;;;2.58;;
49392;SDS011;35268;42.642;23.308;2023-07-20T01:17:21;7.03;;;2.80;;
49392;SDS011;35268;42.642;23.308;2023-07-20T01:19:47;10.52;;;2.90;;
49392;SDS011;35268;42.642;23.308;2023-07-20T01:22:21;12.77;;;3.30;;
49392;SDS011;35268;42.642;23.308;2023-07-20T01:25:09;10.35;;;2.88;;
49392;SDS011;35268;42.642;23.308;2023-07-20T01:30:35;14.65;;;3.05;;
49392;SDS011;35268;42.642;23.308;2023-07-20T01:33:16;9.40;;;2.97;;
49392;SDS011;35268;42.642;23.308;2023-07-20T01:35:42;7.40;;;2.33;;
49392;SDS011;35268;42.642;23.308;2023-07-20T01:38:10;8.38;;;2.30;;
49392;SDS011;35268;42.642;23.308;2023-07-20T01:40:38;10.73;;;2.42;;
49392;SDS011;35268;42.642;23.308;2023-07-20T01:43:04;13.50;;;2.88;;
49392;SDS011;35268;42.642;23.308;2023-07-20T01:45:29;11.23;;;2.90;;
49392;SDS011;35268;42.642;23.308;2023-07-20T01:47:55;9.82;;;3.03;;
49392;SDS011;35268;42.642;23.308;2023-07-20T01:50:20;11.80;;;2.83;;
49392;SDS011;35268;42.642;23.308;2023-07-20T01:52:46;14.25;;;2.63;;
49392;SDS011;35268;42.642;23.308;2023-07-20T01:55:11;8.45;;;2.80;;
49392;SDS011;35268;42.642;23.308;2023-07-20T01:57:37;12.02;;;2.72;;
49392;SDS011;35268;42.642;23.308;2023-07-20T02:00:02;11.77;;;3.20;;
49392;SDS011;35268;42.642;23.308;2023-07-20T02:02:28;11.32;;;3.53;;
49392;SDS011;35268;42.642;23.308;2023-07-20T02:04:54;9.63;;;3.35;;
49392;SDS011;35268;42.642;23.308;2023-07-20T02:07:19;7.15;;;2.75;;
49392;SDS011;35268;42.642;23.308;2023-07-20T02:09:45;13.00;;;3.00;;
49392;SDS011;35268;42.642;23.308;2023-07-20T02:12:10;14.88;;;3.25;;
49392;SDS011;35268;42.642;23.308;2023-07-20T02:14:35;11.95;;;2.80;;
49392;SDS011;35268;42.642;23.308;2023-07-20T02:17:01;17.73;;;3.30;;
49392;SDS011;35268;42.642;23.308;2023-07-20T02:19:26;9.73;;;2.85;;
49392;SDS011;35268;42.642;23.308;2023-07-20T02:21:52;11.75;;;2.40;;
49392;SDS011;35268;42.642;23.308;2023-07-20T02:24:18;7.38;;;2.97;;
49392;SDS011;35268;42.642;23.308;2023-07-20T02:26:43;10.10;;;2.92;;
49392;SDS011;35268;42.642;23.308;2023-07-20T02:29:09;8.10;;;3.40;;
49392;SDS011;35268;42.642;23.308;2023-07-20T02:31:36;8.75;;;3.35;;
49392;SDS011;35268;42.642;23.308;2023-07-20T02:34:04;9.05;;;3.03;;
49392;SDS011;35268;42.642;23.308;2023-07-20T02:36:34;10.32;;;3.53;;
49392;SDS011;35268;42.642;23.308;2023-07-20T02:38:59;13.52;;;3.03;;
49392;SDS011;35268;42.642;23.308;2023-07-20T02:41:27;14.20;;;3.25;;
49392;SDS011;35268;42.642;23.308;2023-07-20T02:43:52;8.50;;;2.67;;
49392;SDS011;35268;42.642;23.308;2023-07-20T02:46:18;15.15;;;3.25;;
49392;SDS011;35268;42.642;23.308;2023-07-20T02:48:43;24.60;;;3.75;;
49392;SDS011;35268;42.642;23.308;2023-07-20T02:51:09;15.40;;;3.50;;
49392;SDS011;35268;42.642;23.308;2023-07-20T02:53:34;13.52;;;3.85;;
49392;SDS011;35268;42.642;23.308;2023-07-20T02:56:00;13.13;;;3.42;;
49392;SDS011;35268;42.642;23.308;2023-07-20T02:58:25;20.25;;;4.22;;
49392;SDS011;35268;42.642;23.308;2023-07-20T03:00:51;18.33;;;4.38;;
49392;SDS011;35268;42.642;23.308;2023-07-20T03:03:16;14.05;;;3.17;;
49392;SDS011;35268;42.642;23.308;2023-07-20T03:05:41;18.48;;;3.63;;
49392;SDS011;35268;42.642;23.308;2023-07-20T03:08:07;16.45;;;3.55;;
49392;SDS011;35268;42.642;23.308;2023-07-20T03:10:33;11.40;;;2.85;;
49392;SDS011;35268;42.642;23.308;2023-07-20T03:13:04;7.65;;;2.80;;
49392;SDS011;35268;42.642;23.308;2023-07-20T03:15:29;16.23;;;3.90;;
49392;SDS011;35268;42.642;23.308;2023-07-20T03:17:56;12.43;;;2.83;;
49392;SDS011;35268;42.642;23.308;2023-07-20T03:20:23;12.73;;;3.10;;
49392;SDS011;35268;42.642;23.308;2023-07-20T03:22:48;11.45;;;3.58;;
49392;SDS011;35268;42.642;23.308;2023-07-20T03:25:14;9.00;;;3.00;;
49392;SDS011;35268;42.642;23.308;2023-07-20T03:27:39;11.93;;;2.85;;
49392;SDS011;35268;42.642;23.308;2023-07-20T03:30:05;10.85;;;3.47;;
49392;SDS011;35268;42.642;23.308;2023-07-20T03:32:32;24.67;;;5.78;;
49392;SDS011;35268;42.642;23.308;2023-07-20T03:34:57;22.23;;;3.95;;
49392;SDS011;35268;42.642;23.308;2023-07-20T03:37:23;15.32;;;3.00;;
49392;SDS011;35268;42.642;23.308;2023-07-20T03:39:48;29.60;;;4.47;;
49392;SDS011;35268;42.642;23.308;2023-07-20T03:42:14;30.63;;;4.28;;
49392;SDS011;35268;42.642;23.308;2023-07-20T03:44:39;16.73;;;3.97;;
49392;SDS011;35268;42.642;23.308;2023-07-20T03:47:05;25.65;;;4.75;;
49392;SDS011;35268;42.642;23.308;2023-07-20T03:49:31;19.95;;;3.72;;
49392;SDS011;35268;42.642;23.308;2023-07-20T03:51:57;28.95;;;5.70;;
49392;SDS011;35268;42.642;23.308;2023-07-20T03:54:22;25.17;;;4.47;;
49392;SDS011;35268;42.642;23.308;2023-07-20T03:56:48;24.50;;;4.43;;
49392;SDS011;35268;42.642;23.308;2023-07-20T03:59:14;37.15;;;5.85;;
49392;SDS011;35268;42.642;23.308;2023-07-20T04:01:39;38.30;;;5.13;;
49392;SDS011;35268;42.642;23.308;2023-07-20T04:04:05;23.40;;;3.85;;
49392;SDS011;35268;42.642;23.308;2023-07-20T04:06:32;21.70;;;4.60;;
49392;SDS011;35268;42.642;23.308;2023-07-20T04:08:57;20.00;;;6.72;;
49392;SDS011;35268;42.642;23.308;2023-07-20T04:11:23;24.92;;;4.45;;
49392;SDS011;35268;42.642;23.308;2023-07-20T04:13:48;13.32;;;4.43;;
49392;SDS011;35268;42.642;23.308;2023-07-20T04:16:14;26.95;;;3.90;;
49392;SDS011;35268;42.642;23.308;2023-07-20T04:18:39;27.70;;;3.88;;
49392;SDS011;35268;42.642;23.308;2023-07-20T04:21:08;17.33;;;3.85;;
49392;SDS011;35268;42.642;23.308;2023-07-20T04:23:34;15.70;;;3.67;;
49392;SDS011;35268;42.642;23.308;2023-07-20T04:26:01;16.08;;;3.25;;
49392;SDS011;35268;42.642;23.308;2023-07-20T04:28:27;13.80;;;3.13;;
49392;SDS011;35268;42.642;23.308;2023-07-20T04:30:52;13.70;;;3.35;;
49392;SDS011;35268;42.642;23.308;2023-07-20T04:33:18;13.30;;;3.70;;
49392;SDS011;35268;42.642;23.308;2023-07-20T04:38:09;18.50;;;3.72;;
49392;SDS011;35268;42.642;23.308;2023-07-20T04:40:35;17.67;;;3.92;;
49392;SDS011;35268;42.642;23.308;2023-07-20T04:43:00;12.90;;;3.58;;
49392;SDS011;35268;42.642;23.308;2023-07-20T04:45:26;13.98;;;3.28;;
49392;SDS011;35268;42.642;23.308;2023-07-20T04:47:51;12.85;;;3.50;;
49392;SDS011;35268;42.642;23.308;2023-07-20T04:50:17;30.02;;;4.57;;
49392;SDS011;35268;42.642;23.308;2023-07-20T04:52:43;17.60;;;3.58;;
49392;SDS011;35268;42.642;23.308;2023-07-20T04:55:11;21.50;;;3.63;;
49392;SDS011;35268;42.642;23.308;2023-07-20T04:57:36;15.10;;;4.70;;
49392;SDS011;35268;42.642;23.308;2023-07-20T05:00:04;19.10;;;4.05;;
49392;SDS011;35268;42.642;23.308;2023-07-20T05:02:30;13.10;;;3.42;;
49392;SDS011;35268;42.642;23.308;2023-07-20T05:04:55;15.50;;;3.78;;
49392;SDS011;35268;42.642;23.308;2023-07-20T05:07:20;14.43;;;3.55;;
49392;SDS011;35268;42.642;23.308;2023-07-20T05:09:46;22.63;;;4.03;;
49392;SDS011;35268;42.642;23.308;2023-07-20T05:12:11;16.92;;;4.00;;
49392;SDS011;35268;42.642;23.308;2023-07-20T05:14:37;16.85;;;3.22;;
49392;SDS011;35268;42.642;23.308;2023-07-20T05:17:03;16.65;;;3.88;;
49392;SDS011;35268;42.642;23.308;2023-07-20T05:19:29;10.02;;;2.63;;
49392;SDS011;35268;42.642;23.308;2023-07-20T05:21:54;23.58;;;4.13;;
49392;SDS011;35268;42.642;23.308;2023-07-20T05:24:20;7.15;;;4.20;;
49392;SDS011;35268;42.642;23.308;2023-07-20T05:26:45;17.67;;;3.38;;
49392;SDS011;35268;42.642;23.308;2023-07-20T05:29:11;19.35;;;3.45;;
49392;SDS011;35268;42.642;23.308;2023-07-20T05:31:36;9.32;;;3.13;;
49392;SDS011;35268;42.642;23.308;2023-07-20T05:34:02;12.07;;;3.63;;
49392;SDS011;35268;42.642;23.308;2023-07-20T05:36:27;10.85;;;3.58;;
49392;SDS011;35268;42.642;23.308;2023-07-20T05:38:53;16.00;;;3.78;;
49392;SDS011;35268;42.642;23.308;2023-07-20T05:41:18;11.77;;;2.85;;
49392;SDS011;35268;42.642;23.308;2023-07-20T05:43:43;9.20;;;3.13;;
49392;SDS011;35268;42.642;23.308;2023-07-20T05:46:09;11.63;;;3.08;;
49392;SDS011;35268;42.642;23.308;2023-07-20T05:48:35;15.55;;;3.97;;
49392;SDS011;35268;42.642;23.308;2023-07-20T05:51:01;9.25;;;3.30;;
49392;SDS011;35268;42.642;23.308;2023-07-20T05:53:26;8.20;;;3.35;;
49392;SDS011;35268;42.642;23.308;2023-07-20T05:55:54;13.75;;;3.85;;
49392;SDS011;35268;42.642;23.308;2023-07-20T05:58:20;29.63;;;4.28;;
49392;SDS011;35268;42.642;23.308;2023-07-20T06:00:50;14.05;;;3.42;;
49392;SDS011;35268;42.642;23.308;2023-07-20T06:03:15;12.40;;;4.43;;
49392;SDS011;35268;42.642;23.308;2023-07-20T06:05:46;13.85;;;3.17;;
49392;SDS011;35268;42.642;23.308;2023-07-20T06:08:12;14.95;;;3.15;;
49392;SDS011;35268;42.642;23.308;2023-07-20T06:10:37;17.63;;;3.45;;
49392;SDS011;35268;42.642;23.308;2023-07-20T06:13:02;10.40;;;3.83;;
49392;SDS011;35268;42.642;23.308;2023-07-20T06:15:30;16.15;;;3.80;;
49392;SDS011;35268;42.642;23.308;2023-07-20T06:17:57;26.20;;;4.35;;
49392;SDS011;35268;42.642;23.308;2023-07-20T06:20:23;14.80;;;3.40;;
49392;SDS011;35268;42.642;23.308;2023-07-20T06:22:49;12.02;;;3.38;;
49392;SDS011;35268;42.642;23.308;2023-07-20T06:25:14;15.80;;;4.28;;
49392;SDS011;35268;42.642;23.308;2023-07-20T06:27:40;14.32;;;4.05;;
49392;SDS011;35268;42.642;23.308;2023-07-20T06:30:05;12.98;;;3.38;;
49392;SDS011;35268;42.642;23.308;2023-07-20T06:32:31;11.45;;;3.72;;
49392;SDS011;35268;42.642;23.308;2023-07-20T06:34:57;16.48;;;3.67;;
49392;SDS011;35268;42.642;23.308;2023-07-20T06:37:23;13.02;;;3.22;;
49392;SDS011;35268;42.642;23.308;2023-07-20T06:39:49;12.13;;;3.95;;
49392;SDS011;35268;42.642;23.308;2023-07-20T06:42:14;10.25;;;2.88;;
49392;SDS011;35268;42.642;23.308;2023-07-20T06:44:40;14.63;;;4.15;;
49392;SDS011;35268;42.642;23.308;2023-07-20T06:47:05;16.70;;;3.72;;
49392;SDS011;35268;42.642;23.308;2023-07-20T06:49:31;19.73;;;4.20;;
49392;SDS011;35268;42.642;23.308;2023-07-20T06:51:56;20.60;;;3.70;;
49392;SDS011;35268;42.642;23.308;2023-07-20T06:54:22;11.52;;;3.30;;
49392;SDS011;35268;42.642;23.308;2023-07-20T06:56:47;20.85;;;4.50;;
49392;SDS011;35268;42.642;23.308;2023-07-20T06:59:13;13.07;;;2.88;;
49392;SDS011;35268;42.642;23.308;2023-07-20T07:01:38;17.35;;;3.97;;
49392;SDS011;35268;42.642;23.308;2023-07-20T07:04:04;11.75;;;3.92;;
49392;SDS011;35268;42.642;23.308;2023-07-20T07:06:30;10.18;;;2.70;;
49392;SDS011;35268;42.642;23.308;2023-07-20T07:08:56;8.65;;;3.50;;
49392;SDS011;35268;42.642;23.308;2023-07-20T07:11:22;18.90;;;3.40;;
49392;SDS011;35268;42.642;23.308;2023-07-20T07:13:48;10.90;;;3.30;;
49392;SDS011;35268;42.642;23.308;2023-07-20T07:16:16;21.02;;;3.53;;
49392;SDS011;35268;42.642;23.308;2023-07-20T07:18:46;13.63;;;3.47;;
49392;SDS011;35268;42.642;23.308;2023-07-20T07:21:11;10.18;;;2.90;;
49392;SDS011;35268;42.642;23.308;2023-07-20T07:23:40;15.05;;;3.35;;
49392;SDS011;35268;42.642;23.308;2023-07-20T07:26:05;10.07;;;3.05;;
49392;SDS011;35268;42.642;23.308;2023-07-20T07:28:31;14.32;;;3.60;;
49392;SDS011;35268;42.642;23.308;2023-07-20T07:30:59;17.48;;;4.35;;
49392;SDS011;35268;42.642;23.308;2023-07-20T07:33:25;16.88;;;4.43;;
49392;SDS011;35268;42.642;23.308;2023-07-20T07:35:51;14.52;;;3.47;;
49392;SDS011;35268;42.642;23.308;2023-07-20T07:38:19;14.98;;;4.13;;
49392;SDS011;35268;42.642;23.308;2023-07-20T07:40:45;14.95;;;4.43;;
49392;SDS011;35268;42.642;23.308;2023-07-20T07:43:11;17.65;;;4.95;;
49392;SDS011;35268;42.642;23.308;2023-07-20T07:45:38;14.68;;;4.25;;
49392;SDS011;35268;42.642;23.308;2023-07-20T07:48:05;23.38;;;4.13;;
49392;SDS011;35268;42.642;23.308;2023-07-20T07:50:31;13.70;;;4.00;;
49392;SDS011;35268;42.642;23.308;2023-07-20T07:52:57;15.65;;;3.97;;
49392;SDS011;35268;42.642;23.308;2023-07-20T07:55:22;15.80;;;4.50;;
49392;SDS011;35268;42.642;23.308;2023-07-20T07:57:49;13.55;;;4.78;;
49392;SDS011;35268;42.642;23.308;2023-07-20T08:00:14;24.70;;;4.60;;
49392;SDS011;35268;42.642;23.308;2023-07-20T08:02:43;20.58;;;4.25;;
49392;SDS011;35268;42.642;23.308;2023-07-20T08:05:13;12.23;;;4.32;;
49392;SDS011;35268;42.642;23.308;2023-07-20T08:07:39;14.23;;;3.90;;
49392;SDS011;35268;42.642;23.308;2023-07-20T08:10:05;29.40;;;6.25;;
49392;SDS011;35268;42.642;23.308;2023-07-20T08:12:31;11.63;;;3.80;;
49392;SDS011;35268;42.642;23.308;2023-07-20T08:14:57;10.60;;;3.85;;
49392;SDS011;35268;42.642;23.308;2023-07-20T08:17:22;10.15;;;3.22;;
49392;SDS011;35268;42.642;23.308;2023-07-20T08:19:48;14.07;;;4.22;;
49392;SDS011;35268;42.642;23.308;2023-07-20T08:22:13;21.88;;;4.00;;
49392;SDS011;35268;42.642;23.308;2023-07-20T08:24:39;11.77;;;3.47;;
49392;SDS011;35268;42.642;23.308;2023-07-20T08:27:05;15.55;;;3.53;;
49392;SDS011;35268;42.642;23.308;2023-07-20T08:29:31;17.70;;;3.17;;
49392;SDS011;35268;42.642;23.308;2023-07-20T08:31:56;12.15;;;2.75;;
49392;SDS011;35268;42.642;23.308;2023-07-20T08:34:21;10.93;;;2.58;;
49392;SDS011;35268;42.642;23.308;2023-07-20T08:36:47;9.15;;;2.33;;
49392;SDS011;35268;42.642;23.308;2023-07-20T08:39:12;8.05;;;1.98;;
49392;SDS011;35268;42.642;23.308;2023-07-20T08:41:38;11.48;;;2.65;;
49392;SDS011;35268;42.642;23.308;2023-07-20T08:44:04;10.70;;;2.95;;
49392;SDS011;35268;42.642;23.308;2023-07-20T08:46:30;13.25;;;2.50;;
49392;SDS011;35268;42.642;23.308;2023-07-20T08:48:56;10.95;;;3.08;;
49392;SDS011;35268;42.642;23.308;2023-07-20T08:51:22;11.23;;;3.22;;
49392;SDS011;35268;42.642;23.308;2023-07-20T08:53:49;11.35;;;3.15;;
49392;SDS011;35268;42.642;23.308;2023-07-20T08:56:16;17.15;;;3.40;;
49392;SDS011;35268;42.642;23.308;2023-07-20T08:58:44;10.02;;;2.80;;
49392;SDS011;35268;42.642;23.308;2023-07-20T09:01:11;8.80;;;2.78;;
49392;SDS011;35268;42.642;23.308;2023-07-20T09:03:37;11.20;;;3.30;;
49392;SDS011;35268;42.642;23.308;2023-07-20T09:06:04;13.82;;;2.40;;
49392;SDS011;35268;42.642;23.308;2023-07-20T09:08:30;8.00;;;2.22;;
49392;SDS011;35268;42.642;23.308;2023-07-20T09:10:56;16.52;;;3.00;;
49392;SDS011;35268;42.642;23.308;2023-07-20T09:13:21;10.20;;;2.10;;
49392;SDS011;35268;42.642;23.308;2023-07-20T09:15:47;8.05;;;2.42;;
49392;SDS011;35268;42.642;23.308;2023-07-20T09:18:27;16.30;;;2.92;;
49392;SDS011;35268;42.642;23.308;2023-07-20T09:21:04;10.30;;;2.78;;
49392;SDS011;35268;42.642;23.308;2023-07-20T09:23:35;6.38;;;2.10;;
49392;SDS011;35268;42.642;23.308;2023-07-20T09:26:11;12.43;;;2.50;;
49392;SDS011;35268;42.642;23.308;2023-07-20T09:28:51;14.38;;;2.90;;
49392;SDS011;35268;42.642;23.308;2023-07-20T09:31:18;16.38;;;2.60;;
49392;SDS011;35268;42.642;23.308;2023-07-20T09:33:45;7.53;;;2.15;;
49392;SDS011;35268;42.642;23.308;2023-07-20T09:36:12;9.35;;;2.65;;
49392;SDS011;35268;42.642;23.308;2023-07-20T09:38:38;9.77;;;2.17;;
49392;SDS011;35268;42.642;23.308;2023-07-20T09:41:06;12.13;;;2.28;;
49392;SDS011;35268;42.642;23.308;2023-07-20T09:43:32;12.32;;;3.25;;
49392;SDS011;35268;42.642;23.308;2023-07-20T09:45:59;7.35;;;2.05;;
49392;SDS011;35268;42.642;23.308;2023-07-20T09:48:25;10.00;;;2.78;;
49392;SDS011;35268;42.642;23.308;2023-07-20T09:50:54;13.13;;;2.55;;
49392;SDS011;35268;42.642;23.308;2023-07-20T09:53:20;11.10;;;2.75;;
49392;SDS011;35268;42.642;23.308;2023-07-20T09:55:47;9.30;;;2.40;;
49392;SDS011;35268;42.642;23.308;2023-07-20T09:58:13;8.80;;;2.63;;
49392;SDS011;35268;42.642;23.308;2023-07-20T10:00:39;9.30;;;2.00;;
49392;SDS011;35268;42.642;23.308;2023-07-20T10:03:13;6.28;;;1.90;;
49392;SDS011;35268;42.642;23.308;2023-07-20T10:05:43;12.00;;;3.47;;
49392;SDS011;35268;42.642;23.308;2023-07-20T10:08:11;9.55;;;2.33;;
49392;SDS011;35268;42.642;23.308;2023-07-20T10:10:38;17.08;;;2.50;;
49392;SDS011;35268;42.642;23.308;2023-07-20T10:13:06;12.50;;;2.80;;
49392;SDS011;35268;42.642;23.308;2023-07-20T10:18:16;8.52;;;2.70;;
49392;SDS011;35268;42.642;23.308;2023-07-20T10:20:48;10.10;;;2.40;;
49392;SDS011;35268;42.642;23.308;2023-07-20T10:23:16;8.60;;;2.60;;
49392;SDS011;35268;42.642;23.308;2023-07-20T10:25:42;8.10;;;2.67;;
49392;SDS011;35268;42.642;23.308;2023-07-20T10:28:08;9.57;;;2.38;;
49392;SDS011;35268;42.642;23.308;2023-07-20T10:30:35;5.28;;;1.83;;
49392;SDS011;35268;42.642;23.308;2023-07-20T10:33:02;7.72;;;2.28;;
49392;SDS011;35268;42.642;23.308;2023-07-20T10:35:29;8.80;;;1.70;;
49392;SDS011;35268;42.642;23.308;2023-07-20T10:38:04;12.40;;;1.98;;
49392;SDS011;35268;42.642;23.308;2023-07-20T10:40:33;14.88;;;2.28;;
49392;SDS011;35268;42.642;23.308;2023-07-20T10:43:03;6.90;;;2.33;;
49392;SDS011;35268;42.642;23.308;2023-07-20T10:45:33;7.65;;;1.83;;
49392;SDS011;35268;42.642;23.308;2023-07-20T10:48:02;12.60;;;2.35;;
49392;SDS011;35268;42.642;23.308;2023-07-20T10:50:29;11.63;;;2.42;;
49392;SDS011;35268;42.642;23.308;2023-07-20T10:53:09;7.65;;;2.13;;
49392;SDS011;35268;42.642;23.308;2023-07-20T10:55:36;7.32;;;2.65;;
49392;SDS011;35268;42.642;23.308;2023-07-20T10:58:11;14.55;;;3.22;;
49392;SDS011;35268;42.642;23.308;2023-07-20T11:00:56;13.63;;;3.33;;
49392;SDS011;35268;42.642;23.308;2023-07-20T11:03:31;16.10;;;3.13;;
49392;SDS011;35268;42.642;23.308;2023-07-20T11:05:58;14.85;;;3.72;;
49392;SDS011;35268;42.642;23.308;2023-07-20T11:08:40;11.57;;;2.92;;
49392;SDS011;35268;42.642;23.308;2023-07-20T11:11:27;12.10;;;3.35;;
49392;SDS011;35268;42.642;23.308;2023-07-20T11:13:58;11.57;;;3.85;;
49392;SDS011;35268;42.642;23.308;2023-07-20T11:16:34;10.82;;;3.70;;
49392;SDS011;35268;42.642;23.308;2023-07-20T11:19:04;17.88;;;4.53;;
49392;SDS011;35268;42.642;23.308;2023-07-20T11:21:35;8.23;;;3.70;;
49392;SDS011;35268;42.642;23.308;2023-07-20T11:24:06;8.50;;;3.83;;
49392;SDS011;35268;42.642;23.308;2023-07-20T11:26:48;16.98;;;4.15;;
49392;SDS011;35268;42.642;23.308;2023-07-20T11:29:18;13.23;;;4.65;;
49392;SDS011;35268;42.642;23.308;2023-07-20T11:31:45;12.43;;;4.78;;
49392;SDS011;35268;42.642;23.308;2023-07-20T11:34:12;14.05;;;4.45;;
49392;SDS011;35268;42.642;23.308;2023-07-20T11:36:41;9.00;;;4.53;;
49392;SDS011;35268;42.642;23.308;2023-07-20T11:39:11;12.43;;;4.03;;
49392;SDS011;35268;42.642;23.308;2023-07-20T11:41:38;10.25;;;4.20;;
49392;SDS011;35268;42.642;23.308;2023-07-20T11:44:09;16.00;;;5.10;;
49392;SDS011;35268;42.642;23.308;2023-07-20T11:46:38;17.83;;;5.25;;
49392;SDS011;35268;42.642;23.308;2023-07-20T11:49:04;15.52;;;4.35;;
49392;SDS011;35268;42.642;23.308;2023-07-20T11:51:31;9.75;;;4.60;;
49392;SDS011;35268;42.642;23.308;2023-07-20T11:53:57;11.38;;;4.53;;
49392;SDS011;35268;42.642;23.308;2023-07-20T11:56:26;10.40;;;4.45;;
49392;SDS011;35268;42.642;23.308;2023-07-20T11:58:55;6.85;;;3.78;;
49392;SDS011;35268;42.642;23.308;2023-07-20T12:01:24;9.93;;;3.78;;
49392;SDS011;35268;42.642;23.308;2023-07-20T12:03:51;9.30;;;3.63;;
49392;SDS011;35268;42.642;23.308;2023-07-20T12:06:16;12.77;;;4.50;;
49392;SDS011;35268;42.642;23.308;2023-07-20T12:08:42;8.73;;;4.55;;
49392;SDS011;35268;42.642;23.308;2023-07-20T12:11:09;9.88;;;3.55;;
49392;SDS011;35268;42.642;23.308;2023-07-20T12:13:36;12.52;;;4.97;;
49392;SDS011;35268;42.642;23.308;2023-07-20T12:16:15;22.50;;;3.83;;
49392;SDS011;35268;42.642;23.308;2023-07-20T12:18:42;9.45;;;3.25;;
49392;SDS011;35268;42.642;23.308;2023-07-20T12:21:08;18.65;;;3.42;;
49392;SDS011;35268;42.642;23.308;2023-07-20T12:23:41;6.60;;;3.53;;
49392;SDS011;35268;42.642;23.308;2023-07-20T12:26:07;12.02;;;2.90;;
49392;SDS011;35268;42.642;23.308;2023-07-20T12:28:43;9.02;;;2.78;;
49392;SDS011;35268;42.642;23.308;2023-07-20T12:31:09;10.10;;;3.28;;
49392;SDS011;35268;42.642;23.308;2023-07-20T12:33:36;9.02;;;2.67;;
49392;SDS011;35268;42.642;23.308;2023-07-20T12:36:04;8.68;;;3.13;;
49392;SDS011;35268;42.642;23.308;2023-07-20T12:38:30;15.48;;;3.00;;
49392;SDS011;35268;42.642;23.308;2023-07-20T12:40:59;6.45;;;2.60;;
49392;SDS011;35268;42.642;23.308;2023-07-20T12:43:26;8.70;;;2.85;;
49392;SDS011;35268;42.642;23.308;2023-07-20T12:45:51;8.68;;;2.63;;
49392;SDS011;35268;42.642;23.308;2023-07-20T12:48:17;8.82;;;2.70;;
49392;SDS011;35268;42.642;23.308;2023-07-20T12:50:42;11.70;;;3.00;;
49392;SDS011;35268;42.642;23.308;2023-07-20T12:53:08;6.93;;;2.97;;
49392;SDS011;35268;42.642;23.308;2023-07-20T12:55:33;16.60;;;3.60;;
49392;SDS011;35268;42.642;23.308;2023-07-20T12:57:59;14.18;;;2.63;;
49392;SDS011;35268;42.642;23.308;2023-07-20T13:00:24;10.73;;;2.60;;
49392;SDS011;35268;42.642;23.308;2023-07-20T13:02:50;9.38;;;3.28;;
49392;SDS011;35268;42.642;23.308;2023-07-20T13:05:16;9.65;;;2.50;;
49392;SDS011;35268;42.642;23.308;2023-07-20T13:07:41;16.25;;;3.03;;
49392;SDS011;35268;42.642;23.308;2023-07-20T13:10:07;11.98;;;2.80;;
49392;SDS011;35268;42.642;23.308;2023-07-20T13:12:34;8.00;;;2.95;;
49392;SDS011;35268;42.642;23.308;2023-07-20T13:15:04;6.47;;;2.47;;
49392;SDS011;35268;42.642;23.308;2023-07-20T13:17:31;13.40;;;2.20;;
49392;SDS011;35268;42.642;23.308;2023-07-20T13:19:58;5.88;;;2.10;;
49392;SDS011;35268;42.642;23.308;2023-07-20T13:22:23;10.45;;;2.75;;
49392;SDS011;35268;42.642;23.308;2023-07-20T13:24:49;12.32;;;2.95;;
49392;SDS011;35268;42.642;23.308;2023-07-20T13:27:15;11.55;;;2.97;;
49392;SDS011;35268;42.642;23.308;2023-07-20T13:29:41;9.73;;;2.83;;
49392;SDS011;35268;42.642;23.308;2023-07-20T13:32:08;13.10;;;2.97;;
49392;SDS011;35268;42.642;23.308;2023-07-20T13:34:34;11.00;;;3.17;;
49392;SDS011;35268;42.642;23.308;2023-07-20T13:36:59;13.68;;;2.40;;
49392;SDS011;35268;42.642;23.308;2023-07-20T13:39:25;12.73;;;2.90;;
49392;SDS011;35268;42.642;23.308;2023-07-20T13:41:54;10.20;;;3.08;;
49392;SDS011;35268;42.642;23.308;2023-07-20T13:44:20;9.48;;;2.55;;
49392;SDS011;35268;42.642;23.308;2023-07-20T13:46:46;22.58;;;3.05;;
49392;SDS011;35268;42.642;23.308;2023-07-20T13:49:12;11.20;;;2.45;;
49392;SDS011;35268;42.642;23.308;2023-07-20T13:51:37;10.95;;;2.10;;
49392;SDS011;35268;42.642;23.308;2023-07-20T13:54:03;11.32;;;2.45;;
49392;SDS011;35268;42.642;23.308;2023-07-20T13:56:29;11.73;;;2.60;;
49392;SDS011;35268;42.642;23.308;2023-07-20T13:58:54;20.30;;;2.70;;
49392;SDS011;35268;42.642;23.308;2023-07-20T14:01:20;7.45;;;2.00;;
49392;SDS011;35268;42.642;23.308;2023-07-20T14:03:48;15.75;;;2.72;;
49392;SDS011;35268;42.642;23.308;2023-07-20T14:06:13;17.40;;;3.03;;
49392;SDS011;35268;42.642;23.308;2023-07-20T14:08:40;18.17;;;2.90;;
49392;SDS011;35268;42.642;23.308;2023-07-20T14:11:06;10.18;;;3.05;;
49392;SDS011;35268;42.642;23.308;2023-07-20T14:13:31;6.43;;;2.17;;
49392;SDS011;35268;42.642;23.308;2023-07-20T14:15:57;6.40;;;2.80;;
49392;SDS011;35268;42.642;23.308;2023-07-20T14:18:23;12.35;;;2.60;;
49392;SDS011;35268;42.642;23.308;2023-07-20T14:20:48;11.05;;;2.95;;
49392;SDS011;35268;42.642;23.308;2023-07-20T14:23:14;9.85;;;2.67;;
49392;SDS011;35268;42.642;23.308;2023-07-20T14:25:40;7.95;;;2.47;;
49392;SDS011;35268;42.642;23.308;2023-07-20T14:28:05;5.88;;;2.30;;
49392;SDS011;35268;42.642;23.308;2023-07-20T14:30:31;8.00;;;2.20;;
49392;SDS011;35268;42.642;23.308;2023-07-20T14:32:56;7.63;;;2.08;;